Lake Station, Michigan
Current Conditions -  °F | °C
As of 3:55 PM on Tuesday 25 Nov 2014 (Local Time) from KMOP Reporting Station
Overcast Overcast  
Wind Chill: 23°   Ceiling: 3100
Heat Index: 32°   Visibility: 10mi
Dew Point: 24°   Wind: 10mph
Humidity: 73%   Direction: 250°WSW
Pressure: 30.02"   Gusts: 16mph
Location:  43.8696°N, 85.0147°W
Report Text: KMOP 252055Z AUTO 25009G14KT 10SM BKN031 OVC039 00/M04 A3002 RMK AO2 T10021045
Loading
Personal Weather Stations






























Interactive Weather Map New forecast layout! Learn more

10-Day Weather Forecast

Advertisements
Track Severe Weather on mobile